createdAt,value
2022-10-10T00:01:21.081Z,2.57
2022-10-10T00:03:49.174Z,4.17
2022-10-10T00:06:17.880Z,7.90
2022-10-10T00:08:46.160Z,2.03
2022-10-10T00:11:15.945Z,4.67
2022-10-10T00:13:45.846Z,3.53
2022-10-10T00:16:15.022Z,3.40
2022-10-10T00:18:43.851Z,3.57
2022-10-10T00:21:12.785Z,3.00
2022-10-10T00:23:40.964Z,8.43
2022-10-10T00:26:10.118Z,3.13
2022-10-10T00:28:39.402Z,4.70
2022-10-10T00:31:10.702Z,3.77
2022-10-10T00:33:39.342Z,6.17
2022-10-10T00:36:08.176Z,3.77
2022-10-10T00:38:36.635Z,7.00
2022-10-10T00:41:05.129Z,6.07
2022-10-10T00:43:33.935Z,12.70
2022-10-10T00:46:02.636Z,4.70
2022-10-10T00:48:35.420Z,3.03
2022-10-10T00:51:09.487Z,4.73
2022-10-10T00:53:46.283Z,6.40
2022-10-10T00:56:19.526Z,9.40
2022-10-10T00:58:52.181Z,5.20
2022-10-10T01:01:24.013Z,8.03
2022-10-10T01:03:58.046Z,3.13
2022-10-10T01:06:26.393Z,7.20
2022-10-10T01:08:56.038Z,3.87
2022-10-10T01:11:46.953Z,4.00
2022-10-10T01:14:26.687Z,3.83
2022-10-10T01:17:03.645Z,3.30
2022-10-10T01:20:09.044Z,4.40
2022-10-10T01:22:49.091Z,3.97
2022-10-10T01:25:25.991Z,2.40
2022-10-10T01:28:00.436Z,5.07
2022-10-10T01:30:31.795Z,4.00
2022-10-10T01:33:08.227Z,6.67
2022-10-10T01:35:46.500Z,4.00
2022-10-10T01:38:25.766Z,3.33
2022-10-10T01:41:02.248Z,4.17
2022-10-10T01:43:31.779Z,4.20
2022-10-10T01:46:11.491Z,3.17
2022-10-10T01:48:40.618Z,3.93
2022-10-10T01:51:24.511Z,3.37
2022-10-10T01:54:01.159Z,3.77
2022-10-10T01:56:45.636Z,4.27
2022-10-10T01:59:30.900Z,4.47
2022-10-10T02:02:09.770Z,6.03
2022-10-10T02:04:43.434Z,2.73
2022-10-10T02:07:16.792Z,2.83
2022-10-10T02:09:48.061Z,5.57
2022-10-10T02:12:19.551Z,2.60
2022-10-10T02:14:52.601Z,2.73
2022-10-10T02:17:27.737Z,5.50
2022-10-10T02:20:00.533Z,2.70
2022-10-10T02:22:30.519Z,3.33
2022-10-10T02:25:02.170Z,3.50
2022-10-10T02:27:40.735Z,2.37
2022-10-10T02:30:10.875Z,5.97
2022-10-10T02:32:45.151Z,2.23
2022-10-10T02:35:18.182Z,7.27
2022-10-10T02:37:48.548Z,4.13
2022-10-10T02:40:24.307Z,4.93
2022-10-10T02:42:54.312Z,4.13
2022-10-10T02:45:25.912Z,6.00
2022-10-10T02:47:55.944Z,5.27
2022-10-10T02:50:27.633Z,6.53
2022-10-10T02:52:56.297Z,3.77
2022-10-10T02:55:24.897Z,5.80
2022-10-10T02:57:53.390Z,6.33
2022-10-10T03:00:22.034Z,3.10
2022-10-10T03:02:51.123Z,5.53
2022-10-10T03:08:11.778Z,4.27
2022-10-10T03:10:40.164Z,4.10
2022-10-10T03:13:08.445Z,5.63
2022-10-10T03:15:36.502Z,6.27
2022-10-10T03:18:04.791Z,4.20
2022-10-10T03:20:34.127Z,6.97
2022-10-10T03:23:02.100Z,9.10
2022-10-10T03:25:30.105Z,5.50
2022-10-10T03:27:58.144Z,7.13
2022-10-10T03:30:26.094Z,4.07
2022-10-10T03:32:54.265Z,6.20
2022-10-10T03:35:22.354Z,4.03
2022-10-10T03:37:51.687Z,9.20
2022-10-10T03:40:19.772Z,4.60
2022-10-10T03:42:50.066Z,9.30
2022-10-10T03:45:18.385Z,3.20
2022-10-10T03:47:46.390Z,3.70
2022-10-10T03:50:14.490Z,2.93
2022-10-10T03:52:42.455Z,6.37
2022-10-10T03:55:12.188Z,4.50
2022-10-10T03:57:40.213Z,4.40
2022-10-10T04:00:09.524Z,5.60
2022-10-10T04:02:37.610Z,4.93
2022-10-10T04:05:06.637Z,5.50
2022-10-10T04:07:34.876Z,10.73
2022-10-10T04:10:02.904Z,7.43
2022-10-10T04:12:32.308Z,6.67
2022-10-10T04:15:00.409Z,6.07
2022-10-10T04:17:28.418Z,11.17
2022-10-10T04:19:56.511Z,6.93
2022-10-10T04:22:24.609Z,6.60
2022-10-10T04:24:52.639Z,6.40
2022-10-10T04:27:20.597Z,15.77
2022-10-10T04:29:51.105Z,6.13
2022-10-10T04:32:19.128Z,7.50
2022-10-10T04:34:47.138Z,12.20
2022-10-10T04:37:15.267Z,7.37
2022-10-10T04:39:47.211Z,7.30
2022-10-10T04:42:16.145Z,7.37
2022-10-10T04:44:44.126Z,7.40
2022-10-10T04:47:13.735Z,7.83
2022-10-10T04:49:42.506Z,9.53
2022-10-10T04:52:10.550Z,7.03
2022-10-10T04:54:38.647Z,8.50
2022-10-10T04:57:06.679Z,6.77
2022-10-10T04:59:37.831Z,15.97
2022-10-10T05:02:06.120Z,6.77
2022-10-10T05:04:35.534Z,13.20
2022-10-10T05:07:03.627Z,7.97
2022-10-10T05:09:33.736Z,4.30
2022-10-10T05:12:01.954Z,7.07
2022-10-10T05:14:30.085Z,9.37
2022-10-10T05:16:58.188Z,8.27
2022-10-10T05:19:26.654Z,8.30
2022-10-10T05:21:56.023Z,7.80
2022-10-10T05:24:24.978Z,7.00
2022-10-10T05:26:55.277Z,7.60
2022-10-10T05:29:25.578Z,5.20
2022-10-10T05:31:54.682Z,13.60
2022-10-10T05:34:24.077Z,11.73
2022-10-10T05:36:52.540Z,5.63
2022-10-10T05:39:22.345Z,5.47
2022-10-10T05:41:50.504Z,7.80
2022-10-10T05:44:18.591Z,6.57
2022-10-10T05:46:46.729Z,8.20
2022-10-10T05:49:16.191Z,7.30
2022-10-10T05:51:44.235Z,4.67
2022-10-10T05:54:12.750Z,7.23
2022-10-10T05:56:43.918Z,8.90
2022-10-10T05:59:12.453Z,8.50
2022-10-10T06:01:40.776Z,4.13
2022-10-10T06:04:08.785Z,7.80
2022-10-10T06:06:36.939Z,7.33
2022-10-10T06:09:05.392Z,4.10
2022-10-10T06:11:33.573Z,9.10
2022-10-10T06:14:03.604Z,6.10
2022-10-10T06:16:32.022Z,5.57
2022-10-10T06:19:00.826Z,4.23
2022-10-10T06:21:29.025Z,4.33
2022-10-10T06:23:57.278Z,6.77
2022-10-10T06:26:25.415Z,8.13
2022-10-10T06:31:30.996Z,5.83
2022-10-10T06:33:59.306Z,5.23
2022-10-10T06:36:27.553Z,5.90
2022-10-10T06:38:56.412Z,6.20
2022-10-10T06:41:24.872Z,5.20
2022-10-10T06:43:52.906Z,5.70
2022-10-10T06:46:20.894Z,7.37
2022-10-10T06:48:50.474Z,3.27
2022-10-10T06:51:19.160Z,7.93
2022-10-10T06:53:47.504Z,6.47
2022-10-10T06:56:26.385Z,4.73
2022-10-10T06:58:55.524Z,4.57
2022-10-10T07:01:25.350Z,9.60
2022-10-10T07:03:54.877Z,5.50
2022-10-10T07:06:23.340Z,3.10
2022-10-10T07:08:51.551Z,6.63
2022-10-10T07:11:19.777Z,5.57
2022-10-10T07:13:49.398Z,5.40
2022-10-10T07:16:17.401Z,4.03
2022-10-10T07:18:45.899Z,4.37
2022-10-10T07:21:15.414Z,4.90
2022-10-10T07:23:43.409Z,4.90
2022-10-10T07:26:21.006Z,7.30
2022-10-10T07:28:49.353Z,4.67
2022-10-10T07:31:17.609Z,4.40
2022-10-10T07:33:50.115Z,8.97
2022-10-10T07:36:20.735Z,10.93
2022-10-10T07:38:53.011Z,6.23
2022-10-10T07:41:21.432Z,6.57
2022-10-10T07:43:49.500Z,7.60
2022-10-10T07:46:19.961Z,9.63
2022-10-10T07:48:48.872Z,5.87
2022-10-10T07:51:17.234Z,5.77
2022-10-10T07:53:46.636Z,8.77
2022-10-10T07:56:14.663Z,5.63
2022-10-10T07:58:42.642Z,6.10
2022-10-10T08:01:13.038Z,8.03
2022-10-10T08:03:41.404Z,7.73
2022-10-10T08:06:11.628Z,8.80
2022-10-10T08:08:50.011Z,6.73
2022-10-10T08:11:21.458Z,4.70
2022-10-10T08:13:50.007Z,10.00
2022-10-10T08:16:18.271Z,7.27
2022-10-10T08:18:46.219Z,6.83
2022-10-10T08:21:15.595Z,6.87
2022-10-10T08:23:43.758Z,7.53
2022-10-10T08:26:13.671Z,10.13
2022-10-10T08:28:43.488Z,9.67
2022-10-10T08:31:13.822Z,7.00
2022-10-10T08:33:42.936Z,7.95
2022-10-10T08:36:13.613Z,8.27
2022-10-10T08:38:41.557Z,9.05
2022-10-10T08:41:12.753Z,7.25
2022-10-10T08:43:48.756Z,7.30
2022-10-10T08:46:23.035Z,8.20
2022-10-10T08:48:52.548Z,9.30
2022-10-10T08:51:27.594Z,10.48
2022-10-10T08:54:00.208Z,18.90
2022-10-10T08:56:32.172Z,11.38
2022-10-10T08:59:06.138Z,9.02
2022-10-10T09:01:36.566Z,6.72
2022-10-10T09:04:24.585Z,7.82
2022-10-10T09:07:07.362Z,9.05
2022-10-10T09:09:41.873Z,6.33
2022-10-10T09:12:26.621Z,10.73
2022-10-10T09:15:05.233Z,10.80
2022-10-10T09:17:40.542Z,11.70
2022-10-10T09:20:23.210Z,8.60
2022-10-10T09:22:56.716Z,9.37
2022-10-10T09:25:28.225Z,11.33
2022-10-10T09:28:03.079Z,7.80
2022-10-10T09:30:36.500Z,12.17
2022-10-10T09:33:12.644Z,14.43
2022-10-10T09:35:42.662Z,8.30
2022-10-10T09:38:23.736Z,10.85
2022-10-10T09:40:56.559Z,12.15
2022-10-10T09:43:28.784Z,10.15
2022-10-10T09:45:58.428Z,9.77
2022-10-10T09:48:30.578Z,7.75
2022-10-10T09:50:59.589Z,13.00
2022-10-10T09:53:27.974Z,16.88
2022-10-10T09:55:56.681Z,11.97
2022-10-10T09:58:32.824Z,16.97
2022-10-10T10:01:20.937Z,12.83
2022-10-10T10:04:29.678Z,12.17
2022-10-10T10:07:07.192Z,8.40
2022-10-10T10:09:36.053Z,11.97
2022-10-10T10:12:07.637Z,8.80
2022-10-10T10:14:44.176Z,9.77
2022-10-10T10:17:17.342Z,11.03
2022-10-10T10:19:47.273Z,10.73
2022-10-10T10:22:27.023Z,9.73
2022-10-10T10:24:55.838Z,9.20
2022-10-10T10:27:25.870Z,10.90
2022-10-10T10:29:55.354Z,9.00
2022-10-10T10:32:45.956Z,11.73
2022-10-10T10:35:25.523Z,12.40
2022-10-10T10:38:08.457Z,7.83
2022-10-10T10:40:41.882Z,9.10
2022-10-10T10:43:39.597Z,11.47
2022-10-10T10:46:17.888Z,8.53
2022-10-10T10:48:49.594Z,9.88
2022-10-10T10:51:36.173Z,6.90
2022-10-10T10:54:18.906Z,5.67
2022-10-10T10:56:53.035Z,13.03
2022-10-10T11:00:26.474Z,6.83
2022-10-10T11:02:56.001Z,6.20
2022-10-10T11:05:41.821Z,9.27
2022-10-10T11:08:40.669Z,13.50
2022-10-10T11:11:23.561Z,13.03
2022-10-10T11:13:59.649Z,11.00
2022-10-10T11:16:47.857Z,10.80
2022-10-10T11:19:25.519Z,5.80
2022-10-10T11:22:01.688Z,8.73
2022-10-10T11:24:42.914Z,10.10
2022-10-10T11:27:17.247Z,9.57
2022-10-10T11:29:56.583Z,8.00
2022-10-10T11:32:30.670Z,8.37
2022-10-10T11:35:19.103Z,10.13
2022-10-10T11:37:53.375Z,10.20
2022-10-10T11:40:40.889Z,11.63
2022-10-10T11:43:16.569Z,11.73
2022-10-10T11:45:51.090Z,11.07
2022-10-10T11:48:29.546Z,9.20
2022-10-10T11:51:04.086Z,6.87
2022-10-10T11:53:37.399Z,13.37
2022-10-10T11:56:15.567Z,9.60
2022-10-10T11:58:45.776Z,9.43
2022-10-10T12:01:19.170Z,9.63
2022-10-10T12:03:47.263Z,19.13
2022-10-10T12:06:22.517Z,7.33
2022-10-10T12:09:00.190Z,14.27
2022-10-10T12:11:33.590Z,9.40
2022-10-10T12:14:03.441Z,7.07
2022-10-10T12:16:35.863Z,9.37
2022-10-10T12:19:07.217Z,7.40
2022-10-10T12:21:54.388Z,6.40
2022-10-10T12:24:25.252Z,11.43
2022-10-10T12:27:32.159Z,6.90
2022-10-10T12:30:28.316Z,8.83
2022-10-10T12:32:57.516Z,9.30
2022-10-10T12:35:42.528Z,7.80
2022-10-10T12:38:18.567Z,11.67
2022-10-10T12:41:14.790Z,7.83
2022-10-10T12:43:49.220Z,6.97
2022-10-10T12:46:27.755Z,7.83
2022-10-10T12:49:16.648Z,9.07
2022-10-10T12:51:52.818Z,9.73
2022-10-10T12:54:25.734Z,10.07
2022-10-10T12:57:20.091Z,15.63
2022-10-10T12:59:48.575Z,8.27
2022-10-10T13:02:22.429Z,11.87
2022-10-10T13:04:53.511Z,11.03
2022-10-10T13:07:23.300Z,8.90
2022-10-10T13:09:53.295Z,11.77
2022-10-10T13:12:28.249Z,7.63
2022-10-10T13:14:56.982Z,8.30
2022-10-10T13:17:28.256Z,7.93
2022-10-10T13:19:58.216Z,9.17
2022-10-10T13:22:27.298Z,6.33
2022-10-10T13:24:55.488Z,6.97
2022-10-10T13:27:28.426Z,7.17
2022-10-10T13:29:57.163Z,5.63
2022-10-10T13:32:27.438Z,6.33
2022-10-10T13:34:58.627Z,14.50
2022-10-10T13:37:27.546Z,8.97
2022-10-10T13:39:56.360Z,12.40
2022-10-10T13:42:32.391Z,8.23
2022-10-10T13:45:03.027Z,14.33
2022-10-10T13:47:53.239Z,16.63
2022-10-10T13:50:29.056Z,10.67
2022-10-10T13:53:36.175Z,9.73
2022-10-10T13:56:11.392Z,11.40
2022-10-10T13:58:44.673Z,12.67
2022-10-10T14:01:38.176Z,9.23
2022-10-10T14:04:19.119Z,15.07
2022-10-10T14:06:58.219Z,7.13
2022-10-10T14:09:31.978Z,8.10
2022-10-10T14:12:03.587Z,7.43
2022-10-10T14:14:40.518Z,7.90
2022-10-10T14:17:11.308Z,10.30
2022-10-10T14:19:40.047Z,8.30
2022-10-10T14:22:08.151Z,6.90
2022-10-10T14:24:36.448Z,4.80
2022-10-10T14:27:15.405Z,9.93
2022-10-10T14:29:44.926Z,15.00
2022-10-10T14:32:13.595Z,17.30
2022-10-10T14:34:41.972Z,9.03
2022-10-10T14:37:16.687Z,8.30
2022-10-10T14:39:44.838Z,6.80
2022-10-10T14:42:14.113Z,11.70
2022-10-10T14:44:42.235Z,8.70
2022-10-10T14:47:18.409Z,7.20
2022-10-10T14:49:47.228Z,10.90
2022-10-10T14:52:15.715Z,6.77
2022-10-10T14:54:43.784Z,10.20
2022-10-10T14:57:13.390Z,6.60
2022-10-10T14:59:49.449Z,8.00
2022-10-10T15:02:23.383Z,7.00
2022-10-10T15:04:51.611Z,4.43
2022-10-10T15:07:19.985Z,6.07
2022-10-10T15:10:19.193Z,5.97
2022-10-10T15:12:39.537Z,5.70
2022-10-10T15:15:09.436Z,8.17
2022-10-10T15:17:39.202Z,5.40
2022-10-10T15:20:10.396Z,6.33
2022-10-10T15:22:39.118Z,6.07
2022-10-10T15:25:10.618Z,6.40
2022-10-10T15:27:39.306Z,14.00
2022-10-10T15:30:08.851Z,6.20
2022-10-10T15:32:40.959Z,7.80
2022-10-10T15:35:13.803Z,8.83
2022-10-10T15:37:41.778Z,11.47
2022-10-10T15:40:11.192Z,6.30
2022-10-10T15:42:39.257Z,7.83
2022-10-10T15:45:08.187Z,6.47
2022-10-10T15:47:46.265Z,8.33
2022-10-10T15:50:14.640Z,8.07
2022-10-10T15:52:42.713Z,9.40
2022-10-10T15:55:11.421Z,12.60
2022-10-10T15:57:40.919Z,8.30
2022-10-10T16:00:10.034Z,8.80
2022-10-10T16:02:40.244Z,9.60
2022-10-10T16:05:10.162Z,11.90
2022-10-10T16:07:46.695Z,10.10
2022-10-10T16:10:16.019Z,8.90
2022-10-10T16:12:44.191Z,6.60
2022-10-10T16:15:13.393Z,5.83
2022-10-10T16:17:42.977Z,10.97
2022-10-10T16:20:11.889Z,11.97
2022-10-10T16:22:39.986Z,5.10
2022-10-10T16:25:24.012Z,9.60
2022-10-10T16:27:52.867Z,12.27
2022-10-10T16:30:21.476Z,9.03
2022-10-10T16:32:51.061Z,9.90
2022-10-10T16:35:19.154Z,13.60
2022-10-10T16:37:47.177Z,9.43
2022-10-10T16:40:15.263Z,9.90
2022-10-10T16:42:43.488Z,11.40
2022-10-10T16:45:12.277Z,6.23
2022-10-10T16:47:40.688Z,12.30
2022-10-10T16:50:11.129Z,15.07
2022-10-10T16:52:39.320Z,10.73
2022-10-10T16:55:08.728Z,8.53
2022-10-10T16:57:37.333Z,18.60
2022-10-10T17:00:06.786Z,9.10
2022-10-10T17:02:35.177Z,16.00
2022-10-10T17:05:03.396Z,14.93
2022-10-10T17:07:32.822Z,9.07
2022-10-10T17:10:00.955Z,9.17
2022-10-10T17:12:29.041Z,11.57
2022-10-10T17:14:57.236Z,10.13
2022-10-10T17:17:25.450Z,15.60
2022-10-10T17:19:53.555Z,11.90
2022-10-10T17:22:21.703Z,12.40
2022-10-10T17:24:51.163Z,17.27
2022-10-10T17:27:19.583Z,16.37
2022-10-10T17:29:47.743Z,10.97
2022-10-10T17:32:15.812Z,14.60
2022-10-10T17:34:44.132Z,11.73
2022-10-10T17:37:12.192Z,14.33
2022-10-10T17:39:40.384Z,14.63
2022-10-10T17:42:09.779Z,13.80
2022-10-10T17:44:44.748Z,17.67
2022-10-10T17:47:15.193Z,15.67
2022-10-10T17:49:46.536Z,10.23
2022-10-10T17:52:17.677Z,12.13
2022-10-10T17:54:49.107Z,10.47
2022-10-10T17:57:18.863Z,19.97
2022-10-10T17:59:46.899Z,18.87
2022-10-10T18:02:16.582Z,16.77
2022-10-10T18:04:44.928Z,14.47
2022-10-10T18:07:13.367Z,21.20
2022-10-10T18:09:42.361Z,16.33
2022-10-10T18:12:10.483Z,10.20
2022-10-10T18:14:40.473Z,17.97
2022-10-10T18:17:08.568Z,16.00
2022-10-10T18:19:36.621Z,17.10
2022-10-10T18:22:05.585Z,18.37
2022-10-10T18:24:33.628Z,19.90
2022-10-10T18:27:01.614Z,23.47
2022-10-10T18:29:29.622Z,19.30
2022-10-10T18:31:58.989Z,23.30
2022-10-10T18:34:27.005Z,18.67
2022-10-10T18:36:54.987Z,20.50
2022-10-10T18:39:23.020Z,25.63
2022-10-10T18:41:51.018Z,18.40
2022-10-10T18:44:19.853Z,21.97
2022-10-10T18:46:49.718Z,14.47
2022-10-10T18:49:19.632Z,14.33
2022-10-10T18:51:47.705Z,14.10
2022-10-10T18:54:17.512Z,15.17
2022-10-10T18:56:46.768Z,12.23
2022-10-10T18:59:16.382Z,11.47
2022-10-10T19:01:46.380Z,17.90
2022-10-10T19:04:16.197Z,14.90
2022-10-10T19:06:45.671Z,12.70
2022-10-10T19:09:16.543Z,17.17
2022-10-10T19:11:46.754Z,22.33
2022-10-10T19:14:18.204Z,22.00
2022-10-10T19:16:47.643Z,13.13
2022-10-10T19:19:17.425Z,17.50
2022-10-10T19:21:48.160Z,14.80
2022-10-10T19:24:20.760Z,12.17
2022-10-10T19:26:53.425Z,21.97
2022-10-10T19:29:23.916Z,12.83
2022-10-10T19:31:52.051Z,18.90
2022-10-10T19:34:20.076Z,14.77
2022-10-10T19:36:49.567Z,22.90
2022-10-10T19:39:17.822Z,13.60
2022-10-10T19:41:45.848Z,10.80
2022-10-10T19:44:21.493Z,13.63
2022-10-10T19:46:49.509Z,26.80
2022-10-10T19:49:17.646Z,17.07
2022-10-10T19:51:45.730Z,20.47
2022-10-10T19:54:15.106Z,17.23
2022-10-10T19:56:43.073Z,21.47
2022-10-10T19:59:11.078Z,17.97
2022-10-10T20:01:39.252Z,14.37
2022-10-10T20:04:07.435Z,25.73
2022-10-10T20:06:35.478Z,17.30
2022-10-10T20:09:06.081Z,16.67
2022-10-10T20:11:41.348Z,14.50
2022-10-10T20:14:09.694Z,23.93
2022-10-10T20:16:37.720Z,19.20
2022-10-10T20:19:11.657Z,11.30
2022-10-10T20:21:40.441Z,11.10
2022-10-10T20:24:10.775Z,15.07
2022-10-10T20:26:40.225Z,16.97
2022-10-10T20:29:14.440Z,12.57
2022-10-10T20:31:42.962Z,15.80
2022-10-10T20:34:11.771Z,14.17
2022-10-10T20:36:47.977Z,15.10
2022-10-10T20:39:16.796Z,15.97
2022-10-10T20:41:46.389Z,19.47
2022-10-10T20:44:15.975Z,14.23
2022-10-10T20:46:46.401Z,14.80
2022-10-10T20:49:16.397Z,13.00
2022-10-10T20:51:48.583Z,18.23
2022-10-10T20:54:17.264Z,15.73
2022-10-10T20:56:46.683Z,12.10
2022-10-10T20:59:14.602Z,17.97
2022-10-10T21:01:43.266Z,20.00
2022-10-10T21:04:12.371Z,18.43
2022-10-10T21:06:42.691Z,12.23
2022-10-10T21:09:12.715Z,16.40
2022-10-10T21:11:41.231Z,13.27
2022-10-10T21:14:12.148Z,15.73
2022-10-10T21:16:42.283Z,14.93
2022-10-10T21:19:12.031Z,11.90
2022-10-10T21:21:40.593Z,9.60
2022-10-10T21:24:10.987Z,10.20
2022-10-10T21:26:40.199Z,16.43
2022-10-10T21:29:09.972Z,17.73
2022-10-10T21:31:40.579Z,15.57
2022-10-10T21:34:13.344Z,19.80
2022-10-10T21:36:41.377Z,12.60
2022-10-10T21:39:09.646Z,11.13
2022-10-10T21:41:38.346Z,14.43
2022-10-10T21:44:06.903Z,10.40
2022-10-10T21:46:37.942Z,12.23
2022-10-10T21:49:08.148Z,10.73
2022-10-10T21:51:38.340Z,13.90
2022-10-10T21:54:07.585Z,12.63
2022-10-10T21:56:36.306Z,22.03
2022-10-10T21:59:04.320Z,16.87
2022-10-10T22:01:33.564Z,12.30
2022-10-10T22:04:04.387Z,13.50
2022-10-10T22:06:32.871Z,9.97
2022-10-10T22:09:01.889Z,11.53
2022-10-10T22:11:32.088Z,12.70
2022-10-10T22:14:02.379Z,17.50
2022-10-10T22:16:31.005Z,12.60
2022-10-10T22:18:59.567Z,13.03
2022-10-10T22:21:31.872Z,13.80
2022-10-10T22:24:01.876Z,17.80
2022-10-10T22:26:30.591Z,14.17
2022-10-10T22:28:59.125Z,8.37
2022-10-10T22:31:27.749Z,9.20
2022-10-10T22:33:55.748Z,13.57
2022-10-10T22:36:23.886Z,17.43
2022-10-10T22:38:53.358Z,12.07
2022-10-10T22:41:21.350Z,10.03
2022-10-10T22:43:49.724Z,9.37
2022-10-10T22:46:17.872Z,15.33
2022-10-10T22:48:45.962Z,8.00
2022-10-10T22:51:16.255Z,8.90
2022-10-10T22:53:45.280Z,9.57
2022-10-10T22:56:16.305Z,11.80
2022-10-10T22:58:44.927Z,17.23
2022-10-10T23:01:16.105Z,8.40
2022-10-10T23:03:44.833Z,13.30
2022-10-10T23:06:13.358Z,9.63
2022-10-10T23:08:41.532Z,16.87
2022-10-10T23:11:09.545Z,7.63
2022-10-10T23:13:38.931Z,8.27
2022-10-10T23:16:07.832Z,9.40
2022-10-10T23:18:36.336Z,12.73
2022-10-10T23:21:04.683Z,18.50
2022-10-10T23:23:32.626Z,7.83
2022-10-10T23:26:00.685Z,7.83
2022-10-10T23:28:28.862Z,9.30
2022-10-10T23:31:02.693Z,9.13
2022-10-10T23:33:35.887Z,11.37
2022-10-10T23:36:08.186Z,7.40
2022-10-10T23:38:36.579Z,11.50
2022-10-10T23:41:04.867Z,7.57
2022-10-10T23:43:32.906Z,12.63
2022-10-10T23:46:02.606Z,7.53
2022-10-10T23:48:30.962Z,12.70
2022-10-10T23:50:59.261Z,9.53
2022-10-10T23:53:27.292Z,9.57
2022-10-10T23:55:55.241Z,8.13
2022-10-10T23:58:23.654Z,9.20
